createdAt,value
2018-02-19T00:00:35.182Z,33.50
2018-02-19T00:01:37.791Z,29.35
2018-02-19T00:02:40.387Z,31.08
2018-02-19T00:03:42.947Z,28.70
2018-02-19T00:04:45.440Z,26.98
2018-02-19T00:05:47.942Z,29.77
2018-02-19T00:06:50.467Z,29.67
2018-02-19T00:07:52.972Z,30.90
2018-02-19T00:08:56.315Z,29.73
2018-02-19T00:09:58.814Z,31.52
2018-02-19T00:11:02.083Z,30.48
2018-02-19T00:12:04.615Z,28.77
2018-02-19T00:13:08.189Z,30.48
2018-02-19T00:14:10.698Z,28.75
2018-02-19T00:15:13.214Z,28.42
2018-02-19T00:16:15.715Z,33.28
2018-02-19T00:17:18.237Z,31.62
2018-02-19T00:18:20.786Z,31.98
2018-02-19T00:19:24.190Z,28.15
2018-02-19T00:20:26.700Z,29.55
2018-02-19T00:21:29.211Z,32.65
2018-02-19T00:22:31.772Z,29.75
2018-02-19T00:23:35.038Z,30.17
2018-02-19T00:24:38.313Z,29.50
2018-02-19T00:25:40.816Z,28.05
2018-02-19T00:26:43.318Z,26.85
2018-02-19T00:27:45.848Z,26.95
2018-02-19T00:28:48.359Z,26.92
2018-02-19T00:29:50.881Z,27.08
2018-02-19T00:30:53.387Z,27.00
2018-02-19T00:31:55.898Z,25.83
2018-02-19T00:32:58.438Z,24.63
2018-02-19T00:34:00.943Z,27.20
2018-02-19T00:35:03.455Z,28.35
2018-02-19T00:36:05.962Z,27.85
2018-02-19T00:37:08.467Z,25.50
2018-02-19T00:38:10.988Z,26.33
2018-02-19T00:39:13.568Z,26.70
2018-02-19T00:40:16.084Z,29.55
2018-02-19T00:41:18.591Z,27.67
2018-02-19T00:42:21.174Z,24.87
2018-02-19T00:43:23.739Z,25.83
2018-02-19T00:44:26.247Z,29.63
2018-02-19T00:45:28.750Z,25.90
2018-02-19T00:46:32.044Z,26.73
2018-02-19T00:47:34.609Z,25.23
2018-02-19T00:48:37.156Z,25.20
2018-02-19T00:49:40.436Z,27.00
2018-02-19T00:50:43.706Z,29.48
2018-02-19T00:51:46.206Z,28.45
2018-02-19T00:52:48.707Z,26.85
2018-02-19T00:53:51.221Z,24.65
2018-02-19T00:54:54.506Z,27.27
2018-02-19T00:55:57.941Z,26.05
2018-02-19T00:57:00.435Z,26.98
2018-02-19T00:58:03.034Z,26.00
2018-02-19T00:59:05.563Z,27.05
2018-02-19T01:00:08.070Z,23.25
2018-02-19T01:01:10.582Z,23.83
2018-02-19T01:02:13.088Z,23.77
2018-02-19T01:03:16.357Z,23.90
2018-02-19T01:04:18.879Z,23.87
2018-02-19T01:05:21.391Z,24.10
2018-02-19T01:06:24.654Z,22.55
2018-02-19T01:07:27.152Z,22.62
2018-02-19T01:08:30.424Z,24.75
2018-02-19T01:09:33.714Z,23.55
2018-02-19T01:10:36.986Z,23.00
2018-02-19T01:11:40.255Z,23.67
2018-02-19T01:12:42.762Z,23.15
2018-02-19T01:13:45.282Z,23.20
2018-02-19T01:14:47.824Z,22.83
2018-02-19T01:15:50.335Z,22.92
2018-02-19T01:16:53.602Z,22.70
2018-02-19T01:17:56.102Z,23.23
2018-02-19T01:18:58.630Z,23.48
2018-02-19T01:20:01.150Z,25.23
2018-02-19T01:21:03.711Z,23.62
2018-02-19T01:22:06.218Z,23.67
2018-02-19T01:23:08.727Z,23.87
2018-02-19T01:24:11.235Z,23.35
2018-02-19T01:25:13.755Z,23.30
2018-02-19T01:26:17.038Z,24.83
2018-02-19T01:27:20.307Z,23.12
2018-02-19T01:28:23.579Z,23.95
2018-02-19T01:29:26.150Z,23.42
2018-02-19T01:30:28.744Z,22.90
2018-02-19T01:31:31.251Z,22.65
2018-02-19T01:32:33.754Z,21.80
2018-02-19T01:33:37.031Z,21.65
2018-02-19T01:34:39.531Z,23.42
2018-02-19T01:35:42.064Z,23.23
2018-02-19T01:36:44.570Z,22.05
2018-02-19T01:37:47.066Z,23.38
2018-02-19T01:38:49.567Z,24.63
2018-02-19T01:39:52.854Z,23.20
2018-02-19T01:40:56.142Z,22.27
2018-02-19T01:41:59.425Z,24.27
2018-02-19T01:43:01.932Z,22.37
2018-02-19T01:44:04.435Z,24.58
2018-02-19T01:45:06.940Z,24.50
2018-02-19T01:46:09.462Z,23.87
2018-02-19T01:47:11.969Z,23.45
2018-02-19T01:48:14.470Z,24.30
2018-02-19T01:49:16.975Z,22.35
2018-02-19T01:50:20.247Z,23.98
2018-02-19T01:51:22.779Z,23.90
2018-02-19T01:52:25.291Z,23.85
2018-02-19T01:53:28.597Z,23.38
2018-02-19T01:54:31.102Z,23.87
2018-02-19T01:55:33.620Z,22.62
2018-02-19T01:56:36.145Z,23.48
2018-02-19T01:57:38.661Z,24.20
2018-02-19T01:58:41.185Z,24.55
2018-02-19T01:59:43.696Z,23.48
2018-02-19T02:00:46.203Z,23.75
2018-02-19T02:01:48.735Z,24.05
2018-02-19T02:02:51.238Z,24.42
2018-02-19T02:03:53.754Z,24.37
2018-02-19T02:04:56.312Z,23.35
2018-02-19T02:05:58.809Z,23.80
2018-02-19T02:07:02.163Z,23.40
2018-02-19T02:08:04.734Z,24.77
2018-02-19T02:09:07.240Z,23.85
2018-02-19T02:10:09.743Z,25.20
2018-02-19T02:11:13.016Z,24.40
2018-02-19T02:12:16.302Z,24.55
2018-02-19T02:13:19.582Z,24.40
2018-02-19T02:14:22.097Z,23.73
2018-02-19T02:15:24.601Z,25.25
2018-02-19T02:16:27.203Z,24.00
2018-02-19T02:17:29.722Z,24.63
2018-02-19T02:18:32.226Z,24.15
2018-02-19T02:19:35.494Z,23.70
2018-02-19T02:20:38.114Z,24.45
2018-02-19T02:21:40.654Z,24.33
2018-02-19T02:22:43.178Z,24.55
2018-02-19T02:23:45.680Z,25.23
2018-02-19T02:24:48.198Z,23.08
2018-02-19T02:25:50.694Z,24.05
2018-02-19T02:26:53.958Z,24.63
2018-02-19T02:27:56.478Z,24.12
2018-02-19T02:28:59.035Z,25.23
2018-02-19T02:30:01.643Z,25.52
2018-02-19T02:31:04.153Z,24.10
2018-02-19T02:32:06.680Z,23.75
2018-02-19T02:33:09.215Z,23.90
2018-02-19T02:34:11.714Z,24.17
2018-02-19T02:35:14.232Z,24.48
2018-02-19T02:36:16.740Z,23.70
2018-02-19T02:37:19.247Z,23.55
2018-02-19T02:38:22.530Z,25.60
2018-02-19T02:39:25.803Z,23.77
2018-02-19T02:40:29.078Z,22.33
2018-02-19T02:41:31.576Z,24.58
2018-02-19T02:42:34.078Z,24.00
2018-02-19T02:43:36.599Z,25.48
2018-02-19T02:44:39.117Z,24.25
2018-02-19T02:45:41.623Z,24.33
2018-02-19T02:46:44.895Z,24.73
2018-02-19T02:47:48.167Z,26.30
2018-02-19T02:48:50.702Z,24.20
2018-02-19T02:49:53.205Z,24.00
2018-02-19T02:50:56.481Z,26.33
2018-02-19T02:51:59.786Z,24.65
2018-02-19T02:53:03.052Z,24.90
2018-02-19T02:54:05.592Z,25.25
2018-02-19T02:55:08.103Z,24.73
2018-02-19T02:56:11.396Z,25.48
2018-02-19T02:57:13.906Z,23.80
2018-02-19T02:58:16.414Z,24.45
2018-02-19T02:59:19.699Z,24.58
2018-02-19T03:00:22.972Z,24.85
2018-02-19T03:01:26.268Z,24.33
2018-02-19T03:02:28.783Z,25.27
2018-02-19T03:03:31.287Z,25.45
2018-02-19T03:04:34.583Z,24.60
2018-02-19T03:05:37.079Z,23.50
2018-02-19T03:06:39.581Z,25.10
2018-02-19T03:07:42.085Z,25.12
2018-02-19T03:08:44.592Z,24.80
2018-02-19T03:09:47.116Z,25.42
2018-02-19T03:10:49.629Z,24.52
2018-02-19T03:11:52.128Z,24.83
2018-02-19T03:12:55.398Z,25.58
2018-02-19T03:13:58.667Z,25.27
2018-02-19T03:15:01.184Z,25.10
2018-02-19T03:16:03.692Z,25.50
2018-02-19T03:17:06.199Z,25.37
2018-02-19T03:18:09.472Z,25.33
2018-02-19T03:19:12.750Z,25.60
2018-02-19T03:20:16.063Z,25.85
2018-02-19T03:21:18.567Z,25.27
2018-02-19T03:22:21.075Z,24.05
2018-02-19T03:23:24.339Z,24.95
2018-02-19T03:24:26.851Z,24.87
2018-02-19T03:25:29.378Z,24.17
2018-02-19T03:26:32.651Z,24.20
2018-02-19T03:27:35.159Z,24.30
2018-02-19T03:28:37.666Z,24.45
2018-02-19T03:29:40.171Z,23.92
2018-02-19T03:30:42.714Z,23.65
2018-02-19T03:31:45.227Z,23.95
2018-02-19T03:32:47.730Z,24.10
2018-02-19T03:33:50.222Z,24.25
2018-02-19T03:34:53.503Z,24.12
2018-02-19T03:35:56.803Z,23.67
2018-02-19T03:36:59.315Z,23.75
2018-02-19T03:38:01.814Z,24.10
2018-02-19T03:39:05.079Z,24.60
2018-02-19T03:40:07.589Z,24.02
2018-02-19T03:41:10.107Z,24.90
2018-02-19T03:42:12.612Z,23.55
2018-02-19T03:43:15.124Z,24.12
2018-02-19T03:44:17.631Z,22.70
2018-02-19T03:45:20.902Z,23.75
2018-02-19T03:46:24.201Z,21.62
2018-02-19T03:47:27.474Z,21.83
2018-02-19T03:48:29.980Z,22.60
2018-02-19T03:49:32.479Z,24.50
2018-02-19T03:50:34.979Z,23.20
2018-02-19T03:51:38.274Z,22.92
2018-02-19T03:52:40.782Z,23.42
2018-02-19T03:53:43.294Z,23.70
2018-02-19T03:54:45.806Z,22.70
2018-02-19T03:55:48.316Z,22.02
2018-02-19T03:56:51.599Z,23.12
2018-02-19T03:57:54.866Z,24.48
2018-02-19T03:58:57.375Z,22.65
2018-02-19T03:59:59.888Z,22.87
2018-02-19T04:01:02.395Z,23.00
2018-02-19T04:02:05.706Z,23.15
2018-02-19T04:03:08.267Z,21.90
2018-02-19T04:04:10.769Z,22.77
2018-02-19T04:05:13.276Z,23.52
2018-02-19T04:06:15.844Z,23.33
2018-02-19T04:07:18.390Z,21.05
2018-02-19T04:08:21.654Z,23.38
2018-02-19T04:09:24.669Z,22.85
2018-02-19T04:10:27.229Z,22.75
2018-02-19T04:11:29.707Z,21.75
2018-02-19T04:12:32.327Z,22.37
2018-02-19T04:13:34.830Z,22.37
2018-02-19T04:14:38.098Z,22.27
2018-02-19T04:15:41.370Z,23.12
2018-02-19T04:16:43.878Z,21.40
2018-02-19T04:17:46.400Z,23.27
2018-02-19T04:18:49.670Z,22.58
2018-02-19T04:19:52.281Z,22.92
2018-02-19T04:20:54.779Z,23.48
2018-02-19T04:21:57.276Z,22.40
2018-02-19T04:22:59.803Z,23.15
2018-02-19T04:24:02.350Z,23.98
2018-02-19T04:25:04.855Z,23.20
2018-02-19T04:26:07.363Z,22.62
2018-02-19T04:27:10.625Z,23.40
2018-02-19T04:28:13.150Z,21.40
2018-02-19T04:29:15.689Z,22.65
2018-02-19T04:30:18.198Z,23.02
2018-02-19T04:31:20.708Z,23.62
2018-02-19T04:32:23.980Z,21.27
2018-02-19T04:33:26.494Z,24.40
2018-02-19T04:34:29.007Z,23.20
2018-02-19T04:35:31.524Z,23.65
2018-02-19T04:36:34.024Z,23.17
2018-02-19T04:37:36.528Z,22.60
2018-02-19T04:38:39.051Z,23.25
2018-02-19T04:39:41.559Z,22.87
2018-02-19T04:40:44.059Z,22.23
2018-02-19T04:41:46.570Z,22.23
2018-02-19T04:43:00.550Z,21.45
2018-02-19T04:44:03.074Z,22.35
2018-02-19T04:45:09.903Z,22.48
2018-02-19T04:46:20.999Z,22.17
2018-02-19T04:47:23.499Z,21.25
2018-02-19T04:48:25.998Z,21.37
2018-02-19T04:49:28.521Z,22.73
2018-02-19T04:50:31.041Z,21.48
2018-02-19T04:51:33.545Z,21.62
2018-02-19T04:52:36.816Z,21.35
2018-02-19T04:53:40.078Z,21.27
2018-02-19T04:54:42.606Z,21.80
2018-02-19T04:55:45.112Z,22.45
2018-02-19T04:56:47.607Z,21.48
2018-02-19T04:57:50.879Z,22.17
2018-02-19T04:58:54.155Z,22.23
2018-02-19T04:59:57.435Z,20.30
2018-02-19T05:00:59.982Z,21.70
2018-02-19T05:02:02.479Z,22.00
2018-02-19T05:03:05.797Z,22.30
2018-02-19T05:04:08.303Z,22.35
2018-02-19T05:05:10.835Z,21.33
2018-02-19T05:06:13.334Z,21.05
2018-02-19T05:07:15.831Z,21.75
2018-02-19T05:08:19.108Z,21.40
2018-02-19T05:09:22.375Z,21.75
2018-02-19T05:10:24.915Z,21.52
2018-02-19T05:11:27.426Z,21.98
2018-02-19T05:12:30.704Z,21.20
2018-02-19T05:13:34.012Z,21.33
2018-02-19T05:14:36.515Z,21.98
2018-02-19T05:15:39.034Z,21.75
2018-02-19T05:16:41.548Z,20.83
2018-02-19T05:17:44.052Z,21.75
2018-02-19T05:18:47.323Z,19.15
2018-02-19T05:19:50.632Z,22.50
2018-02-19T05:20:53.151Z,20.02
2018-02-19T05:21:55.655Z,21.67
2018-02-19T05:22:58.997Z,21.55
2018-02-19T05:24:01.446Z,20.00
2018-02-19T05:25:03.968Z,21.50
2018-02-19T05:26:07.280Z,20.60
2018-02-19T05:27:09.778Z,22.10
2018-02-19T05:28:12.290Z,20.85
2018-02-19T05:29:14.786Z,21.10
2018-02-19T05:30:17.290Z,20.67
2018-02-19T05:31:19.827Z,21.08
2018-02-19T05:32:22.327Z,20.23
2018-02-19T05:33:24.834Z,20.67
2018-02-19T05:34:27.347Z,19.50
2018-02-19T05:35:31.354Z,21.17
2018-02-19T05:36:33.878Z,20.85
2018-02-19T05:37:36.375Z,21.45
2018-02-19T05:38:38.876Z,20.12
2018-02-19T05:39:41.412Z,22.55
2018-02-19T05:40:43.926Z,21.58
2018-02-19T05:41:46.455Z,19.77
2018-02-19T05:42:49.727Z,21.45
2018-02-19T05:43:52.227Z,20.90
2018-02-19T05:44:54.726Z,20.75
2018-02-19T05:45:57.231Z,21.37
2018-02-19T05:47:00.529Z,21.40
2018-02-19T05:48:03.798Z,20.88
2018-02-19T05:49:07.067Z,20.65
2018-02-19T05:50:09.573Z,20.33
2018-02-19T05:51:12.071Z,20.52
2018-02-19T05:52:14.599Z,22.45
2018-02-19T05:53:17.119Z,20.85
2018-02-19T05:54:19.623Z,21.85
2018-02-19T05:55:22.134Z,20.02
2018-02-19T05:56:24.638Z,19.35
2018-02-19T05:57:27.936Z,20.23
2018-02-19T05:58:31.206Z,20.62
2018-02-19T05:59:34.504Z,20.88
2018-02-19T06:00:37.011Z,19.90
2018-02-19T06:01:39.519Z,20.10
2018-02-19T06:02:42.814Z,19.80
2018-02-19T06:03:46.091Z,20.23
2018-02-19T06:04:49.372Z,20.42
2018-02-19T06:05:52.647Z,21.10
2018-02-19T06:06:55.163Z,20.58
2018-02-19T06:07:57.687Z,18.42
2018-02-19T06:09:00.962Z,19.92
2018-02-19T06:10:04.238Z,20.40
2018-02-19T06:11:06.747Z,21.00
2018-02-19T06:12:09.257Z,20.52
2018-02-19T06:13:11.804Z,20.23
2018-02-19T06:14:14.313Z,19.10
2018-02-19T06:15:17.587Z,20.23
2018-02-19T06:16:20.090Z,19.52
2018-02-19T06:17:22.595Z,19.20
2018-02-19T06:18:25.124Z,21.42
2018-02-19T06:19:27.629Z,20.20
2018-02-19T06:20:30.131Z,21.50
2018-02-19T06:21:33.407Z,20.20
2018-02-19T06:22:36.821Z,20.08
2018-02-19T06:23:39.350Z,19.12
2018-02-19T06:24:41.862Z,19.90
2018-02-19T06:25:44.420Z,19.92
2018-02-19T06:26:46.923Z,21.52
2018-02-19T06:27:49.426Z,22.48
2018-02-19T06:28:52.719Z,23.87
2018-02-19T06:29:56.004Z,23.58
2018-02-19T06:30:58.598Z,25.37
2018-02-19T06:32:01.114Z,24.63
2018-02-19T06:33:03.615Z,31.23
2018-02-19T06:34:06.144Z,31.25
2018-02-19T06:35:08.649Z,42.35
2018-02-19T06:36:11.238Z,37.28
2018-02-19T06:37:13.744Z,28.40
2018-02-19T06:38:16.246Z,29.60
2018-02-19T06:39:18.804Z,31.08
2018-02-19T06:40:21.372Z,27.20
2018-02-19T06:41:23.872Z,27.15
2018-02-19T06:42:26.375Z,28.05
2018-02-19T06:43:29.692Z,28.15
2018-02-19T06:44:32.232Z,26.00
2018-02-19T06:45:35.552Z,29.00
2018-02-19T06:46:38.058Z,24.77
2018-02-19T06:47:41.328Z,28.48
2018-02-19T06:48:43.858Z,29.73
2018-02-19T06:49:46.399Z,25.92
2018-02-19T06:50:49.671Z,21.45
2018-02-19T06:51:52.291Z,24.23
2018-02-19T06:52:54.814Z,29.87
2018-02-19T06:53:58.090Z,26.55
2018-02-19T06:55:01.415Z,26.08
2018-02-19T06:56:03.940Z,24.50
2018-02-19T06:57:07.223Z,23.40
2018-02-19T06:58:10.506Z,23.95
2018-02-19T06:59:15.286Z,26.05
2018-02-19T07:00:17.832Z,29.98
2018-02-19T07:01:20.346Z,33.42
2018-02-19T07:02:22.896Z,30.80
2018-02-19T07:03:25.424Z,27.45
2018-02-19T07:04:27.935Z,24.77
2018-02-19T07:05:30.485Z,24.08
2018-02-19T07:06:32.999Z,26.50
2018-02-19T07:07:36.275Z,22.13
2018-02-19T07:08:39.549Z,22.52
2018-02-19T07:09:42.095Z,24.17
2018-02-19T07:10:44.667Z,25.50
2018-02-19T07:11:47.200Z,21.77
2018-02-19T07:12:49.730Z,23.40
2018-02-19T07:13:52.997Z,22.77
2018-02-19T07:14:56.283Z,24.35
2018-02-19T07:15:58.840Z,23.35
2018-02-19T07:17:02.152Z,23.83
2018-02-19T07:18:04.725Z,24.80
2018-02-19T07:19:08.139Z,21.80
2018-02-19T07:20:10.673Z,21.75
2018-02-19T07:21:13.211Z,21.98
2018-02-19T07:22:16.515Z,23.08
2018-02-19T07:23:19.786Z,22.62
2018-02-19T07:24:23.083Z,23.10
2018-02-19T07:25:26.356Z,21.42
2018-02-19T07:26:29.651Z,21.75
2018-02-19T07:27:32.175Z,21.17
2018-02-19T07:28:34.694Z,20.15
2018-02-19T07:29:37.231Z,20.80
2018-02-19T07:30:40.535Z,20.45
2018-02-19T07:31:43.088Z,20.08
2018-02-19T07:32:46.358Z,19.52
2018-02-19T07:33:48.875Z,19.23
2018-02-19T07:34:51.388Z,20.23
2018-02-19T07:35:53.906Z,20.10
2018-02-19T07:36:56.446Z,20.10
2018-02-19T07:37:59.710Z,19.20
2018-02-19T07:39:02.992Z,18.92
2018-02-19T07:40:06.272Z,19.12
2018-02-19T07:41:08.778Z,18.70
2018-02-19T07:42:11.308Z,19.35
2018-02-19T07:43:14.598Z,19.05
2018-02-19T07:44:17.875Z,18.37
2018-02-19T07:45:21.168Z,19.15
2018-02-19T07:46:24.441Z,17.12
2018-02-19T07:47:27.822Z,19.42
2018-02-19T07:48:30.294Z,18.58
2018-02-19T07:49:33.561Z,18.83
2018-02-19T07:50:36.094Z,16.95
2018-02-19T07:51:38.626Z,17.02
2018-02-19T07:52:41.160Z,18.12
2018-02-19T07:53:43.686Z,17.87
2018-02-19T07:54:46.199Z,18.05
2018-02-19T07:55:49.483Z,17.12
2018-02-19T07:56:51.984Z,17.55
2018-02-19T07:57:54.579Z,18.23
2018-02-19T07:58:57.091Z,18.67
2018-02-19T08:00:00.370Z,17.85
2018-02-19T08:01:03.652Z,17.25
2018-02-19T08:02:06.925Z,18.73
2018-02-19T08:03:09.474Z,17.85
2018-02-19T08:04:11.982Z,18.12
2018-02-19T08:05:15.253Z,17.52
2018-02-19T08:06:18.535Z,17.15
2018-02-19T08:07:21.815Z,18.10
2018-02-19T08:08:25.111Z,15.82
2018-02-19T08:09:28.403Z,16.12
2018-02-19T08:10:30.925Z,17.50
2018-02-19T08:11:33.452Z,16.87
2018-02-19T08:12:35.967Z,16.58
2018-02-19T08:13:38.542Z,17.58
2018-02-19T08:14:41.913Z,18.60
2018-02-19T08:15:44.540Z,16.30
2018-02-19T08:16:47.042Z,16.65
2018-02-19T08:17:49.679Z,17.50
2018-02-19T08:18:52.243Z,17.33
2018-02-19T08:19:54.779Z,17.25
2018-02-19T08:20:58.046Z,16.85
2018-02-19T08:22:01.343Z,17.62
2018-02-19T08:23:04.615Z,16.52
2018-02-19T08:24:07.142Z,16.48
2018-02-19T08:25:10.270Z,16.67
2018-02-19T08:26:13.546Z,17.42
2018-02-19T08:27:16.836Z,16.42
2018-02-19T08:28:20.107Z,16.67
2018-02-19T08:29:22.627Z,17.98
2018-02-19T08:30:25.136Z,16.83
2018-02-19T08:31:27.843Z,16.83
2018-02-19T08:32:30.442Z,17.08
2018-02-19T08:33:33.181Z,16.60
2018-02-19T08:34:35.761Z,17.00
2018-02-19T08:35:38.343Z,18.08
2018-02-19T08:36:41.087Z,17.33
2018-02-19T08:37:43.619Z,16.60
2018-02-19T08:38:46.895Z,18.20
2018-02-19T08:39:49.427Z,16.65
2018-02-19T08:40:51.940Z,17.20
2018-02-19T08:41:55.211Z,17.50
2018-02-19T08:42:57.715Z,17.70
2018-02-19T08:44:00.229Z,17.35
2018-02-19T08:45:03.546Z,16.42
2018-02-19T08:46:06.816Z,17.52
2018-02-19T08:47:10.129Z,17.50
2018-02-19T08:48:12.653Z,17.62
2018-02-19T08:49:15.160Z,17.15
2018-02-19T08:50:17.684Z,17.27
2018-02-19T08:51:20.289Z,17.83
2018-02-19T08:52:22.867Z,15.88
2018-02-19T08:53:25.371Z,16.37
2018-02-19T08:54:27.883Z,16.35
2018-02-19T08:55:30.431Z,17.08
2018-02-19T08:56:33.710Z,18.15
2018-02-19T08:57:37.014Z,16.15
2018-02-19T08:58:39.539Z,18.37
2018-02-19T08:59:42.052Z,18.25
2018-02-19T09:00:44.592Z,17.87
2018-02-19T09:01:47.868Z,18.17
2018-02-19T09:02:50.376Z,17.37
2018-02-19T09:03:52.875Z,18.42
2018-02-19T09:04:56.100Z,18.30
2018-02-19T09:05:59.401Z,17.73
2018-02-19T09:07:01.980Z,18.33
2018-02-19T09:08:04.483Z,17.62
2018-02-19T09:09:07.032Z,16.98
2018-02-19T09:10:09.540Z,18.12
2018-02-19T09:11:12.830Z,17.75
2018-02-19T09:12:16.105Z,17.58
2018-02-19T09:13:19.374Z,16.50
2018-02-19T09:14:21.886Z,16.73
2018-02-19T09:15:24.550Z,17.95
2018-02-19T09:16:27.079Z,16.37
2018-02-19T09:17:29.595Z,17.42
2018-02-19T09:18:32.095Z,17.27
2018-02-19T09:19:34.633Z,17.40
2018-02-19T09:20:37.138Z,17.50
2018-02-19T09:21:40.435Z,13.85
2018-02-19T09:22:43.726Z,16.42
2018-02-19T09:23:47.026Z,15.57
2018-02-19T09:24:49.535Z,17.23
2018-02-19T09:25:52.057Z,16.90
2018-02-19T09:26:54.605Z,16.73
2018-02-19T09:27:57.884Z,17.52
2018-02-19T09:30:10.204Z,14.70
2018-02-19T09:31:12.726Z,16.90
2018-02-19T09:32:15.256Z,18.58
2018-02-19T09:33:17.767Z,20.67
2018-02-19T09:34:20.285Z,19.15
2018-02-19T09:35:22.810Z,16.23
2018-02-19T09:36:26.079Z,18.02
2018-02-19T09:37:28.644Z,16.15
2018-02-19T09:38:31.925Z,17.10
2018-02-19T09:39:34.437Z,16.77
2018-02-19T09:40:36.987Z,16.40
2018-02-19T09:41:40.303Z,16.60
2018-02-19T09:42:42.830Z,16.65
2018-02-19T09:43:46.106Z,16.42
2018-02-19T09:44:49.390Z,16.37
2018-02-19T09:45:52.655Z,17.35
2018-02-19T09:46:55.167Z,16.40
2018-02-19T09:47:57.706Z,16.25
2018-02-19T09:49:00.991Z,15.85
2018-02-19T09:50:04.316Z,17.40
2018-02-19T09:51:06.875Z,16.37
2018-02-19T09:52:09.390Z,16.45
2018-02-19T09:53:11.954Z,16.73
2018-02-19T09:54:14.512Z,16.87
2018-02-19T09:55:17.032Z,15.38
2018-02-19T09:56:19.547Z,16.58
2018-02-19T09:57:22.364Z,16.23
2018-02-19T09:58:24.607Z,17.55
2018-02-19T09:59:27.892Z,17.55
2018-02-19T10:00:31.168Z,15.80
2018-02-19T10:01:34.439Z,17.02
2018-02-19T10:02:36.947Z,15.90
2018-02-19T10:03:39.484Z,16.23
2018-02-19T10:04:42.755Z,16.83
2018-02-19T10:05:45.304Z,15.57
2018-02-19T10:06:47.814Z,15.23
2018-02-19T10:07:50.349Z,15.60
2018-02-19T10:08:52.898Z,17.10
2018-02-19T10:09:55.405Z,16.45
2018-02-19T10:10:58.686Z,16.65
2018-02-19T10:12:01.994Z,17.05
2018-02-19T10:13:04.501Z,17.40
2018-02-19T10:14:07.067Z,16.80
2018-02-19T10:15:09.574Z,15.10
2018-02-19T10:16:12.079Z,15.50
2018-02-19T10:17:14.588Z,17.27
2018-02-19T10:18:17.859Z,16.08
2018-02-19T10:19:20.383Z,15.63
2018-02-19T10:20:22.899Z,16.52
2018-02-19T10:21:26.203Z,14.00
2018-02-19T10:22:28.711Z,15.73
2018-02-19T10:23:31.217Z,16.50
2018-02-19T10:24:34.522Z,15.10
2018-02-19T10:25:37.031Z,14.75
2018-02-19T10:26:39.537Z,16.05
2018-02-19T10:27:42.829Z,14.52
2018-02-19T10:28:46.094Z,15.10
2018-02-19T10:29:49.411Z,14.52
2018-02-19T10:30:51.929Z,14.82
2018-02-19T10:31:54.464Z,15.07
2018-02-19T10:32:57.023Z,15.55
2018-02-19T10:33:59.536Z,14.82
2018-02-19T10:35:02.839Z,15.23
2018-02-19T10:36:05.355Z,15.05
2018-02-19T10:37:07.851Z,15.55
2018-02-19T10:38:10.449Z,15.18
2018-02-19T10:39:12.954Z,16.15
2018-02-19T10:40:15.474Z,16.37
2018-02-19T10:41:17.986Z,14.30
2018-02-19T10:42:20.488Z,15.48
2018-02-19T10:43:23.767Z,16.90
2018-02-19T10:44:27.040Z,15.00
2018-02-19T10:45:29.567Z,15.23
2018-02-19T10:46:32.078Z,15.48
2018-02-19T10:47:34.578Z,15.82
2018-02-19T10:48:37.106Z,15.20
2018-02-19T10:49:40.389Z,14.57
2018-02-19T10:50:43.680Z,15.95
2018-02-19T10:51:46.958Z,16.85
2018-02-19T10:52:50.227Z,16.27
2018-02-19T10:53:52.842Z,15.40
2018-02-19T10:54:55.349Z,15.18
2018-02-19T10:55:57.910Z,15.88
2018-02-19T10:57:00.412Z,16.10
2018-02-19T10:58:03.688Z,14.93
2018-02-19T10:59:06.196Z,14.85
2018-02-19T11:00:08.695Z,15.48
2018-02-19T11:01:11.223Z,14.70
2018-02-19T11:02:13.759Z,15.95
2018-02-19T11:03:17.028Z,14.27
2018-02-19T11:04:19.534Z,14.40
2018-02-19T11:05:22.121Z,14.43
2018-02-19T11:06:24.671Z,15.27
2018-02-19T11:07:27.171Z,14.38
2018-02-19T11:08:29.698Z,15.68
2018-02-19T11:09:32.279Z,15.23
2018-02-19T11:10:34.792Z,14.98
2018-02-19T11:11:37.351Z,15.77
2018-02-19T11:12:39.872Z,15.68
2018-02-19T11:13:42.386Z,16.02
2018-02-19T11:14:46.398Z,16.55
2018-02-19T11:15:49.672Z,15.38
2018-02-19T11:16:52.219Z,15.82
2018-02-19T11:17:54.726Z,14.70
2018-02-19T11:18:58.008Z,15.57
2018-02-19T11:20:01.286Z,16.20
2018-02-19T11:21:04.558Z,16.85
2018-02-19T11:22:07.079Z,16.85
2018-02-19T11:23:09.629Z,16.87
2018-02-19T11:24:12.182Z,14.73
2018-02-19T11:25:15.447Z,17.08
2018-02-19T11:26:18.719Z,15.30
2018-02-19T11:27:21.263Z,16.40
2018-02-19T11:28:23.777Z,15.18
2018-02-19T11:29:26.292Z,15.55
2018-02-19T11:30:28.819Z,14.43
2018-02-19T11:31:31.331Z,14.70
2018-02-19T11:32:33.850Z,15.00
2018-02-19T11:33:36.372Z,15.25
2018-02-19T11:34:39.648Z,14.77
2018-02-19T11:35:42.156Z,15.15
2018-02-19T11:36:44.680Z,13.05
2018-02-19T11:37:47.202Z,14.23
2018-02-19T11:38:55.379Z,14.07
2018-02-19T11:39:53.007Z,14.80
2018-02-19T11:40:55.513Z,15.57
2018-02-19T11:41:58.028Z,16.05
2018-02-19T11:43:00.569Z,15.20
2018-02-19T11:44:03.907Z,14.23
2018-02-19T11:45:07.184Z,14.80
2018-02-19T11:46:10.478Z,14.73
2018-02-19T11:47:12.992Z,15.90
2018-02-19T11:48:15.545Z,16.35
2018-02-19T11:49:18.055Z,14.57
2018-02-19T11:50:21.331Z,15.27
2018-02-19T11:51:23.855Z,15.80
2018-02-19T11:52:26.355Z,16.40
2018-02-19T11:53:28.880Z,16.62
2018-02-19T11:54:31.380Z,15.80
2018-02-19T11:55:33.888Z,14.75
2018-02-19T11:56:36.387Z,15.02
2018-02-19T11:57:38.890Z,14.43
2018-02-19T11:58:41.420Z,14.98
2018-02-19T11:59:43.935Z,15.88
2018-02-19T12:00:47.217Z,14.55
2018-02-19T12:01:50.497Z,14.48
2018-02-19T12:02:53.788Z,15.07
2018-02-19T12:03:57.087Z,14.90
2018-02-19T12:04:59.774Z,14.87
2018-02-19T12:06:02.335Z,14.02
2018-02-19T12:07:05.588Z,15.60
2018-02-19T12:08:08.880Z,15.02
2018-02-19T12:09:11.412Z,14.52
2018-02-19T12:10:13.928Z,13.77
2018-02-19T12:11:16.472Z,13.68
2018-02-19T12:12:19.744Z,14.27
2018-02-19T12:13:23.027Z,13.48
2018-02-19T12:14:25.575Z,13.75
2018-02-19T12:15:28.078Z,14.43
2018-02-19T12:16:31.347Z,14.43
2018-02-19T12:17:34.627Z,14.48
2018-02-19T12:18:37.905Z,14.87
2018-02-19T12:19:40.447Z,14.98
2018-02-19T12:20:42.960Z,15.38
2018-02-19T12:21:46.226Z,14.68
2018-02-19T12:22:49.515Z,13.95
2018-02-19T12:23:52.795Z,14.77
2018-02-19T12:24:56.079Z,14.23
2018-02-19T12:25:59.359Z,14.38
2018-02-19T12:27:02.618Z,14.35
2018-02-19T12:28:05.128Z,13.85
2018-02-19T12:29:07.644Z,14.38
2018-02-19T12:30:10.175Z,12.95
2018-02-19T12:31:12.687Z,15.02
2018-02-19T12:32:15.215Z,14.10
2018-02-19T12:33:17.718Z,14.82
2018-02-19T12:34:20.234Z,14.75
2018-02-19T12:35:22.766Z,15.70
2018-02-19T12:36:26.049Z,14.30
2018-02-19T12:37:29.315Z,13.85
2018-02-19T12:38:31.825Z,14.30
2018-02-19T12:39:34.348Z,14.77
2018-02-19T12:40:37.658Z,14.05
2018-02-19T12:41:40.927Z,13.07
2018-02-19T12:42:44.199Z,14.20
2018-02-19T12:43:46.698Z,13.88
2018-02-19T12:44:49.203Z,15.18
2018-02-19T12:45:51.732Z,13.98
2018-02-19T12:46:54.239Z,13.88
2018-02-19T12:47:56.744Z,13.65
2018-02-19T12:49:00.038Z,13.93
2018-02-19T12:50:02.553Z,13.90
2018-02-19T12:51:05.103Z,14.48
2018-02-19T12:52:07.618Z,15.27
2018-02-19T12:53:10.896Z,13.93
2018-02-19T12:54:13.415Z,14.45
2018-02-19T12:55:15.927Z,13.75
2018-02-19T12:56:18.451Z,14.60
2018-02-19T12:57:20.972Z,14.98
2018-02-19T12:58:24.262Z,14.25
2018-02-19T12:59:31.237Z,14.18
2018-02-19T13:00:34.192Z,14.45
2018-02-19T13:01:37.506Z,14.40
2018-02-19T13:02:40.027Z,14.43
2018-02-19T13:05:10.422Z,13.85
2018-02-19T13:06:12.928Z,14.57
2018-02-19T13:07:15.459Z,14.02
2018-02-19T13:08:17.970Z,15.05
2018-02-19T13:09:21.251Z,14.07
2018-02-19T13:10:34.355Z,14.27
2018-02-19T13:11:46.837Z,12.02
2018-02-19T13:12:51.256Z,13.07
2018-02-19T13:14:00.946Z,14.43
2018-02-19T13:15:05.966Z,13.13
2018-02-19T13:16:09.214Z,13.32
2018-02-19T13:17:12.490Z,13.52
2018-02-19T13:18:15.014Z,13.65
2018-02-19T13:19:17.568Z,14.18
2018-02-19T13:20:20.083Z,14.27
2018-02-19T13:21:22.587Z,14.98
2018-02-19T13:22:25.096Z,12.63
2018-02-19T13:23:27.626Z,15.25
2018-02-19T13:24:30.136Z,12.93
2018-02-19T13:25:32.647Z,13.80
2018-02-19T13:26:35.161Z,14.65
2018-02-19T13:27:37.669Z,14.02
2018-02-19T13:28:40.199Z,14.43
2018-02-19T13:29:42.697Z,13.38
2018-02-19T13:30:46.141Z,14.85
2018-02-19T13:31:48.647Z,14.20